This is the latest recevied weather packets stored in our database for station/object SV2RIM-2. If no packets are shown the sender has not sent any weather packets the latest 1 day(s).
| Time | Temp. | Humidity | Pressure | Rain* | Wind** | Luminosity | Snow |
|---|---|---|---|---|---|---|---|
| 1778082619 | 27.22° C | 32% | 1013.4 hPa | - | - | - | - |
| 1778081419 | 30° C | 29% | 1013.6 hPa | - | - | - | - |
| 1778080819 | 28.89° C | 30% | 1013.5 hPa | - | - | - | - |
| 1778080219 | 28.89° C | 30% | 1013.5 hPa | - | - | - | - |
| 1778079019 | 26.67° C | 32% | 1013.5 hPa | - | - | - | - |
| 1778078419 | 26.11° C | 33% | 1013.5 hPa | - | - | - | - |
| 1778077819 | 26.11° C | 35% | 1013.4 hPa | - | - | - | - |
| 1778077219 | 27.22° C | 36% | 1013.5 hPa | - | - | - | - |
| 1778076619 | 30° C | 32% | 1013.5 hPa | - | - | - | - |
| 1778075419 | 30° C | 34% | 1013.5 hPa | - | - | - | - |
| 1778074219 | 28.33° C | 38% | 1013.7 hPa | - | - | - | - |
| 1778073619 | 30° C | 35% | 1013.8 hPa | - | - | - | - |
| 1778073019 | 28.89° C | 38% | 1013.9 hPa | - | - | - | - |
| 1778072419 | 28.89° C | 37% | 1014 hPa | - | - | - | - |
| 1778071819 | 28.89° C | 37% | 1014.1 hPa | - | - | - | - |
| 1778070019 | 28.33° C | 38% | 1014.3 hPa | - | - | - | - |
| 1778069419 | 27.78° C | 40% | 1014.5 hPa | - | - | - | - |
| 1778068219 | 27.78° C | 39% | 1014.7 hPa | - | - | - | - |
| 1778067619 | 28.33° C | 38% | 1014.8 hPa | - | - | - | - |
| 1778067019 | 27.78° C | 39% | 1014.9 hPa | - | - | - | - |
| 1778066419 | 27.78° C | 38% | 1015 hPa | - | - | - | - |
| 1778065819 | 27.22° C | 39% | 1015.1 hPa | - | - | - | - |
| 1778065219 | 26.67° C | 39% | 1015.1 hPa | - | - | - | - |
| 1778064619 | 26.67° C | 39% | 1015.2 hPa | - | - | - | - |
| 1778064019 | 26.67° C | 38% | 1015.2 hPa | - | - | - | - |
* Rain since midnight (hover to see other rain measurements)
** Current wind speed in m/s (hover to see current wind gust speed)